createdAt,value
2018-11-06T00:00:29.133Z,17.65
2018-11-06T00:03:02.413Z,17.65
2018-11-06T00:05:30.007Z,17.61
2018-11-06T00:07:57.687Z,17.60
2018-11-06T00:10:25.354Z,17.59
2018-11-06T00:12:53.005Z,17.59
2018-11-06T00:15:20.630Z,17.58
2018-11-06T00:17:48.369Z,17.58
2018-11-06T00:20:15.978Z,17.55
2018-11-06T00:22:43.571Z,17.55
2018-11-06T00:25:12.854Z,17.57
2018-11-06T00:27:40.666Z,17.55
2018-11-06T00:30:11.111Z,17.54
2018-11-06T00:32:39.360Z,17.53
2018-11-06T00:35:08.502Z,17.52
2018-11-06T00:37:36.168Z,17.51
2018-11-06T00:40:03.981Z,17.49
2018-11-06T00:42:31.632Z,17.51
2018-11-06T00:44:59.263Z,17.50
2018-11-06T00:47:26.924Z,17.50
2018-11-06T00:49:54.479Z,17.49
2018-11-06T00:52:22.103Z,17.48
2018-11-06T00:54:49.728Z,17.47
2018-11-06T00:57:17.347Z,17.42
2018-11-06T00:59:44.950Z,17.47
2018-11-06T01:02:12.632Z,17.46
2018-11-06T01:04:40.230Z,17.44
2018-11-06T01:07:07.876Z,17.48
2018-11-06T01:09:35.491Z,17.48
2018-11-06T01:12:03.121Z,17.50
2018-11-06T01:14:30.762Z,17.48
2018-11-06T01:16:58.385Z,17.48
2018-11-06T01:19:25.989Z,17.49
2018-11-06T01:21:53.627Z,17.48
2018-11-06T01:24:21.236Z,17.47
2018-11-06T01:26:48.883Z,17.47
2018-11-06T01:29:16.551Z,17.49
2018-11-06T01:31:44.179Z,17.49
2018-11-06T01:34:12.639Z,17.49
2018-11-06T01:36:40.256Z,17.47
2018-11-06T01:39:08.920Z,17.46
2018-11-06T01:41:36.527Z,17.45
2018-11-06T01:44:04.257Z,17.46
2018-11-06T01:46:31.877Z,17.48
2018-11-06T01:48:59.624Z,17.49
2018-11-06T01:51:27.200Z,17.46
2018-11-06T01:53:54.831Z,17.48
2018-11-06T01:56:22.497Z,17.49
2018-11-06T01:58:50.101Z,17.50
2018-11-06T02:01:17.702Z,17.49
2018-11-06T02:03:45.307Z,17.47
2018-11-06T02:06:12.953Z,17.50
2018-11-06T02:08:40.687Z,17.53
2018-11-06T02:11:08.245Z,17.54
2018-11-06T02:13:35.846Z,17.53
2018-11-06T02:16:03.518Z,17.52
2018-11-06T02:18:31.160Z,17.53
2018-11-06T02:20:58.765Z,17.55
2018-11-06T02:23:26.364Z,17.55
2018-11-06T02:25:54.048Z,17.56
2018-11-06T02:28:21.710Z,17.59
2018-11-06T02:30:49.361Z,17.59
2018-11-06T02:33:16.944Z,17.58
2018-11-06T02:35:44.556Z,17.58
2018-11-06T02:38:12.174Z,17.56
2018-11-06T02:40:39.764Z,17.58
2018-11-06T02:43:07.398Z,17.60
2018-11-06T02:45:35.016Z,17.65
2018-11-06T02:48:02.662Z,17.61
2018-11-06T02:50:30.240Z,17.59
2018-11-06T02:52:57.870Z,17.61
2018-11-06T02:55:25.495Z,17.60
2018-11-06T02:57:53.168Z,17.57
2018-11-06T03:00:20.728Z,17.61
2018-11-06T03:02:48.398Z,17.63
2018-11-06T03:05:16.099Z,17.63
2018-11-06T03:07:43.681Z,17.61
2018-11-06T03:10:12.362Z,17.61
2018-11-06T03:12:41.197Z,17.61
2018-11-06T03:15:09.698Z,17.61
2018-11-06T03:17:37.415Z,17.60
2018-11-06T03:20:05.036Z,17.57
2018-11-06T03:22:32.689Z,17.61
2018-11-06T03:25:00.327Z,17.61
2018-11-06T03:27:28.067Z,17.61
2018-11-06T03:29:55.707Z,17.58
2018-11-06T03:32:23.310Z,17.60
2018-11-06T03:34:50.935Z,17.60
2018-11-06T03:37:18.599Z,17.60
2018-11-06T03:39:46.206Z,17.61
2018-11-06T03:42:13.837Z,17.59
2018-11-06T03:44:41.464Z,17.60
2018-11-06T03:47:09.134Z,17.59
2018-11-06T03:49:36.793Z,17.61
2018-11-06T03:52:04.722Z,17.59
2018-11-06T03:54:32.472Z,17.61
2018-11-06T03:57:00.068Z,17.59
2018-11-06T03:59:27.695Z,17.63
2018-11-06T04:01:55.336Z,17.62
2018-11-06T04:04:22.917Z,17.63
2018-11-06T04:06:50.659Z,17.63
2018-11-06T04:09:18.232Z,17.60
2018-11-06T04:11:45.804Z,17.61
2018-11-06T04:14:13.383Z,17.60
2018-11-06T04:16:41.021Z,17.63
2018-11-06T04:19:09.079Z,17.63
2018-11-06T04:21:39.606Z,17.64
2018-11-06T04:24:10.598Z,17.63
2018-11-06T04:26:38.664Z,17.62
2018-11-06T04:29:07.424Z,17.63
2018-11-06T04:31:36.060Z,17.62
2018-11-06T04:34:03.647Z,17.63
2018-11-06T04:36:31.361Z,17.63
2018-11-06T04:38:59.377Z,17.64
2018-11-06T04:41:27.220Z,17.63
2018-11-06T04:43:54.832Z,17.60
2018-11-06T04:46:23.039Z,17.64
2018-11-06T04:48:51.128Z,17.65
2018-11-06T04:51:25.386Z,17.62
2018-11-06T04:53:57.466Z,17.65
2018-11-06T04:56:25.480Z,17.66
2018-11-06T04:58:53.137Z,17.65
2018-11-06T05:01:20.869Z,17.66
2018-11-06T05:03:48.536Z,17.65
2018-11-06T05:06:17.237Z,17.65
2018-11-06T05:08:45.192Z,17.63
2018-11-06T05:11:13.299Z,17.64
2018-11-06T05:13:40.997Z,17.67
2018-11-06T05:16:08.636Z,17.66
2018-11-06T05:18:36.231Z,17.68
2018-11-06T05:21:04.711Z,17.71
2018-11-06T05:23:32.320Z,17.68
2018-11-06T05:25:59.962Z,17.74
2018-11-06T05:28:27.839Z,17.75
2018-11-06T05:30:55.479Z,17.76
2018-11-06T05:33:23.045Z,17.76
2018-11-06T05:35:50.684Z,17.77
2018-11-06T05:38:18.305Z,17.76
2018-11-06T05:41:04.421Z,17.75
2018-11-06T05:43:32.161Z,17.73
2018-11-06T05:45:59.768Z,17.77
2018-11-06T05:48:27.410Z,17.80
2018-11-06T05:50:55.023Z,17.83
2018-11-06T05:53:22.722Z,17.82
2018-11-06T05:55:50.449Z,17.82
2018-11-06T05:58:18.096Z,17.82
2018-11-06T06:00:46.155Z,17.81
2018-11-06T06:03:13.927Z,17.84
2018-11-06T06:05:41.620Z,17.82
2018-11-06T06:08:09.281Z,17.81
2018-11-06T06:10:37.285Z,17.78
2018-11-06T06:13:05.295Z,17.80
2018-11-06T06:15:32.976Z,17.81
2018-11-06T06:18:00.644Z,17.81
2018-11-06T06:20:28.317Z,17.80
2018-11-06T06:22:56.038Z,17.80
2018-11-06T06:25:23.679Z,17.82
2018-11-06T06:27:51.364Z,17.81
2018-11-06T06:30:18.998Z,17.80
2018-11-06T06:32:46.652Z,17.81
2018-11-06T06:35:14.348Z,17.80
2018-11-06T06:37:42.256Z,17.81
2018-11-06T06:40:11.887Z,17.83
2018-11-06T06:42:39.606Z,17.83
2018-11-06T06:45:10.271Z,17.84
2018-11-06T06:47:37.991Z,17.84
2018-11-06T06:50:07.540Z,17.87
2018-11-06T06:52:35.225Z,17.89
2018-11-06T06:55:03.258Z,17.91
2018-11-06T06:57:36.582Z,17.92
2018-11-06T07:00:04.790Z,17.94
2018-11-06T07:02:32.468Z,17.94
2018-11-06T07:05:00.089Z,17.92
2018-11-06T07:07:27.669Z,17.95
2018-11-06T07:09:55.254Z,17.96
2018-11-06T07:12:22.888Z,17.98
2018-11-06T07:14:50.612Z,17.97
2018-11-06T07:17:18.245Z,17.97
2018-11-06T07:19:45.876Z,17.98
2018-11-06T07:22:13.489Z,18.01
2018-11-06T07:24:41.064Z,18.01
2018-11-06T07:27:08.736Z,18.00
2018-11-06T07:29:36.368Z,18.00
2018-11-06T07:32:04.231Z,17.95
2018-11-06T07:34:31.961Z,17.94
2018-11-06T07:36:59.549Z,17.96
2018-11-06T07:39:27.186Z,18.00
2018-11-06T07:41:54.873Z,18.00
2018-11-06T07:44:22.529Z,18.00
2018-11-06T07:46:50.112Z,17.99
2018-11-06T07:49:17.711Z,17.99
2018-11-06T07:51:45.379Z,17.98
2018-11-06T07:54:12.989Z,17.94
2018-11-06T07:56:40.649Z,17.99
2018-11-06T07:59:08.798Z,17.95
2018-11-06T08:01:37.000Z,17.93
2018-11-06T08:04:04.815Z,17.95
2018-11-06T08:06:32.406Z,17.94
2018-11-06T08:09:00.132Z,17.92
2018-11-06T08:11:27.766Z,17.93
2018-11-06T08:13:55.384Z,17.95
2018-11-06T08:16:23.025Z,17.93
2018-11-06T08:18:50.656Z,17.93
2018-11-06T08:21:18.277Z,17.95
2018-11-06T08:23:45.977Z,17.95
2018-11-06T08:26:13.542Z,17.95
2018-11-06T08:28:41.338Z,17.97
2018-11-06T08:31:09.103Z,17.93
2018-11-06T08:33:36.644Z,17.98
2018-11-06T08:36:04.284Z,17.98
2018-11-06T08:38:31.904Z,17.99
2018-11-06T08:40:59.542Z,17.99
2018-11-06T08:43:27.194Z,17.97
2018-11-06T08:45:54.883Z,17.99
2018-11-06T08:48:22.495Z,18.00
2018-11-06T08:50:50.193Z,18.01
2018-11-06T08:53:17.836Z,18.04
2018-11-06T08:55:45.460Z,18.04
2018-11-06T08:58:13.139Z,18.03
2018-11-06T09:00:40.719Z,18.03
2018-11-06T09:03:08.361Z,18.03
2018-11-06T09:05:36.110Z,18.04
2018-11-06T09:08:03.696Z,18.06
2018-11-06T09:10:31.361Z,18.06
2018-11-06T09:12:58.949Z,18.05
2018-11-06T09:15:26.560Z,18.05
2018-11-06T09:17:54.176Z,18.05
2018-11-06T09:20:21.816Z,18.07
2018-11-06T09:22:49.517Z,18.07
2018-11-06T09:25:18.238Z,18.07
2018-11-06T09:27:45.830Z,18.08
2018-11-06T09:30:14.770Z,18.08
2018-11-06T09:32:42.396Z,18.08
2018-11-06T09:35:11.073Z,18.10
2018-11-06T09:37:38.941Z,18.10
2018-11-06T09:40:08.053Z,18.11
2018-11-06T09:42:35.756Z,18.13
2018-11-06T09:45:03.546Z,18.12
2018-11-06T09:47:31.189Z,18.12
2018-11-06T09:49:58.785Z,18.10
2018-11-06T09:52:26.427Z,18.10
2018-11-06T09:54:54.066Z,18.10
2018-11-06T09:57:21.702Z,18.11
2018-11-06T09:59:49.348Z,18.11
2018-11-06T10:02:17.004Z,18.10
2018-11-06T10:04:44.716Z,18.10
2018-11-06T10:07:12.569Z,18.09
2018-11-06T10:09:39.961Z,18.09
2018-11-06T10:12:07.605Z,18.09
2018-11-06T10:14:35.209Z,18.09
2018-11-06T10:17:02.826Z,18.09
2018-11-06T10:19:30.959Z,18.08
2018-11-06T10:21:58.815Z,18.10
2018-11-06T10:24:26.467Z,18.11
2018-11-06T10:26:54.039Z,18.13
2018-11-06T10:29:21.736Z,18.15
2018-11-06T10:31:49.509Z,18.17
2018-11-06T10:34:17.168Z,18.18
2018-11-06T10:36:44.789Z,18.19
2018-11-06T10:39:13.317Z,18.21
2018-11-06T10:41:41.016Z,18.25
2018-11-06T10:44:08.715Z,18.26
2018-11-06T10:46:36.572Z,18.25
2018-11-06T10:49:04.417Z,18.27
2018-11-06T10:51:32.105Z,18.27
2018-11-06T10:53:59.699Z,18.28
2018-11-06T10:56:27.368Z,18.30
2018-11-06T10:58:54.981Z,18.30
2018-11-06T11:01:28.329Z,18.31
2018-11-06T11:04:01.475Z,18.33
2018-11-06T11:06:29.173Z,18.31
2018-11-06T11:08:56.927Z,18.30
2018-11-06T11:11:24.512Z,18.26
2018-11-06T11:13:52.152Z,18.28
2018-11-06T11:16:19.748Z,18.30
2018-11-06T11:18:47.356Z,18.30
2018-11-06T11:21:15.032Z,18.32
2018-11-06T11:23:42.692Z,18.38
2018-11-06T11:26:10.328Z,18.42
2018-11-06T11:28:37.982Z,18.44
2018-11-06T11:31:11.604Z,18.49
2018-11-06T11:33:39.474Z,18.50
2018-11-06T11:36:07.229Z,18.52
2018-11-06T11:38:34.833Z,18.53
2018-11-06T11:41:02.559Z,18.54
2018-11-06T11:43:30.301Z,18.57
2018-11-06T11:45:58.075Z,18.60
2018-11-06T11:48:25.655Z,18.62
2018-11-06T11:50:53.330Z,18.62
2018-11-06T11:53:20.963Z,18.59
2018-11-06T11:55:48.544Z,18.62
2018-11-06T11:58:16.176Z,18.64
2018-11-06T12:00:43.871Z,18.64
2018-11-06T12:03:11.476Z,18.64
2018-11-06T12:05:39.683Z,18.66
2018-11-06T12:08:07.332Z,18.69
2018-11-06T12:10:35.002Z,18.73
2018-11-06T12:13:02.636Z,18.76
2018-11-06T12:15:30.223Z,18.75
2018-11-06T12:17:57.945Z,18.76
2018-11-06T12:20:25.604Z,18.79
2018-11-06T12:22:53.208Z,18.78
2018-11-06T12:25:21.045Z,18.73
2018-11-06T12:27:48.476Z,18.71
2018-11-06T12:30:17.021Z,18.69
2018-11-06T12:32:44.744Z,18.70
2018-11-06T12:35:13.536Z,18.69
2018-11-06T12:37:41.306Z,18.66
2018-11-06T12:40:12.756Z,18.65
2018-11-06T12:42:40.782Z,18.63
2018-11-06T12:45:10.012Z,18.61
2018-11-06T12:47:37.806Z,18.63
2018-11-06T12:50:06.576Z,18.63
2018-11-06T12:52:34.200Z,18.66
2018-11-06T12:55:01.819Z,18.68
2018-11-06T12:57:29.576Z,18.66
2018-11-06T12:59:57.184Z,18.64
2018-11-06T13:02:24.792Z,18.62
2018-11-06T13:04:52.412Z,18.64
2018-11-06T13:07:20.000Z,18.63
2018-11-06T13:09:47.662Z,18.63
2018-11-06T13:12:15.495Z,18.62
2018-11-06T13:14:43.128Z,18.64
2018-11-06T13:17:10.857Z,18.66
2018-11-06T13:19:38.653Z,18.67
2018-11-06T13:22:06.978Z,18.67
2018-11-06T13:24:34.617Z,18.63
2018-11-06T13:27:02.339Z,18.63
2018-11-06T13:29:30.017Z,18.64
2018-11-06T13:31:57.876Z,18.62
2018-11-06T13:34:25.518Z,18.62
2018-11-06T13:36:53.157Z,18.62
2018-11-06T13:39:20.870Z,18.64
2018-11-06T13:41:48.479Z,18.66
2018-11-06T13:44:16.269Z,18.67
2018-11-06T13:46:43.942Z,18.70
2018-11-06T13:49:11.531Z,18.71
2018-11-06T13:51:39.142Z,18.68
2018-11-06T13:54:06.782Z,18.68
2018-11-06T13:56:34.407Z,18.67
2018-11-06T13:59:02.063Z,18.68
2018-11-06T14:01:29.692Z,18.74
2018-11-06T14:03:57.301Z,18.77
2018-11-06T14:06:24.937Z,18.77
2018-11-06T14:08:52.613Z,18.77
2018-11-06T14:11:20.255Z,18.76
2018-11-06T14:13:47.917Z,18.76
2018-11-06T14:16:15.589Z,18.74
2018-11-06T14:18:43.194Z,18.72
2018-11-06T14:21:10.965Z,18.71
2018-11-06T14:23:38.576Z,18.72
2018-11-06T14:26:06.425Z,18.70
2018-11-06T14:28:34.064Z,18.69
2018-11-06T14:31:01.690Z,18.69
2018-11-06T14:33:29.466Z,18.70
2018-11-06T14:35:57.132Z,18.69
2018-11-06T14:38:24.803Z,18.68
2018-11-06T14:40:52.457Z,18.66
2018-11-06T14:43:20.161Z,18.65
2018-11-06T14:45:47.754Z,18.64
2018-11-06T14:48:15.444Z,18.63
2018-11-06T14:50:43.052Z,18.62
2018-11-06T14:53:10.676Z,18.61
2018-11-06T14:55:38.363Z,18.59
2018-11-06T14:58:05.972Z,18.58
2018-11-06T15:00:33.637Z,18.53
2018-11-06T15:03:01.335Z,18.53
2018-11-06T15:05:28.954Z,18.52
2018-11-06T15:07:56.575Z,18.50
2018-11-06T15:10:24.198Z,18.48
2018-11-06T15:12:51.896Z,18.48
2018-11-06T15:15:19.428Z,18.48
2018-11-06T15:17:47.631Z,18.48
2018-11-06T15:20:16.545Z,18.49
2018-11-06T15:22:44.665Z,18.47
2018-11-06T15:25:12.890Z,18.47
2018-11-06T15:27:40.659Z,18.45
2018-11-06T15:30:10.289Z,18.44
2018-11-06T15:32:38.121Z,18.42
2018-11-06T15:35:06.669Z,18.39
2018-11-06T15:37:34.745Z,18.36
2018-11-06T15:40:02.413Z,18.39
2018-11-06T15:42:30.477Z,18.37
2018-11-06T15:44:58.062Z,18.35
2018-11-06T15:47:25.684Z,18.33
2018-11-06T15:49:53.440Z,18.33
2018-11-06T15:52:21.084Z,18.32
2018-11-06T15:54:48.699Z,18.32
2018-11-06T15:57:16.373Z,18.32
2018-11-06T15:59:44.020Z,18.29
2018-11-06T16:02:11.713Z,18.27
2018-11-06T16:04:39.268Z,18.28
2018-11-06T16:07:07.113Z,18.26
2018-11-06T16:09:34.781Z,18.25
2018-11-06T16:12:02.497Z,18.24
2018-11-06T16:14:30.114Z,18.25
2018-11-06T16:16:57.721Z,18.23
2018-11-06T16:19:25.522Z,18.24
2018-11-06T16:21:53.114Z,18.23
2018-11-06T16:24:20.715Z,18.21
2018-11-06T16:26:48.424Z,18.22
2018-11-06T16:29:16.049Z,18.23
2018-11-06T16:31:44.253Z,18.20
2018-11-06T16:34:11.818Z,18.20
2018-11-06T16:36:39.441Z,18.20
2018-11-06T16:39:08.468Z,18.21
2018-11-06T16:41:36.140Z,18.20
2018-11-06T16:44:03.840Z,18.19
2018-11-06T16:46:31.514Z,18.19
2018-11-06T16:48:59.205Z,18.19
2018-11-06T16:51:26.846Z,18.18
2018-11-06T16:53:54.465Z,18.17
2018-11-06T16:56:22.260Z,18.16
2018-11-06T16:58:49.855Z,18.16
2018-11-06T17:01:17.681Z,18.15
2018-11-06T17:03:45.116Z,18.15
2018-11-06T17:06:18.376Z,18.15
2018-11-06T17:08:46.026Z,18.15
2018-11-06T17:11:13.673Z,18.14
2018-11-06T17:13:41.305Z,18.13
2018-11-06T17:16:08.956Z,18.17
2018-11-06T17:18:36.589Z,18.21
2018-11-06T17:21:04.325Z,18.24
2018-11-06T17:23:31.939Z,18.26
2018-11-06T17:25:59.616Z,18.27
2018-11-06T17:28:27.415Z,18.29
2018-11-06T17:30:55.027Z,18.25
2018-11-06T17:33:22.793Z,18.23
2018-11-06T17:35:50.545Z,18.22
2018-11-06T17:38:18.260Z,18.20
2018-11-06T17:40:46.005Z,18.21
2018-11-06T17:43:13.646Z,18.20
2018-11-06T17:45:41.352Z,18.21
2018-11-06T17:48:09.016Z,18.22
2018-11-06T17:50:36.683Z,18.24
2018-11-06T17:53:04.329Z,18.27
2018-11-06T17:55:32.012Z,18.26
2018-11-06T17:57:59.869Z,18.27
2018-11-06T18:00:27.565Z,18.25
2018-11-06T18:02:55.194Z,18.23
2018-11-06T18:05:24.286Z,18.23
2018-11-06T18:07:51.944Z,18.25
2018-11-06T18:10:20.208Z,18.27
2018-11-06T18:12:47.823Z,18.32
2018-11-06T18:15:15.449Z,18.30
2018-11-06T18:17:43.544Z,18.28
2018-11-06T18:20:12.188Z,18.29
2018-11-06T18:22:40.673Z,18.30
2018-11-06T18:25:08.917Z,18.27
2018-11-06T18:27:36.483Z,18.24
2018-11-06T18:30:05.028Z,18.25
2018-11-06T18:32:32.714Z,18.24
2018-11-06T18:35:00.612Z,18.23
2018-11-06T18:37:28.212Z,18.24
2018-11-06T18:39:55.813Z,18.22
2018-11-06T18:42:23.440Z,18.20
2018-11-06T18:44:51.081Z,18.19
2018-11-06T18:47:18.763Z,18.17
2018-11-06T18:49:46.440Z,18.16
2018-11-06T18:52:14.082Z,18.17
2018-11-06T18:54:41.739Z,18.16
2018-11-06T18:57:09.427Z,18.17
2018-11-06T18:59:37.847Z,18.20
2018-11-06T19:02:06.232Z,18.20
2018-11-06T19:04:33.962Z,18.22
2018-11-06T19:07:01.552Z,18.24
2018-11-06T19:09:29.162Z,18.25
2018-11-06T19:11:56.778Z,18.25
2018-11-06T19:14:24.478Z,18.24
2018-11-06T19:16:52.366Z,18.24
2018-11-06T19:19:19.937Z,18.26
2018-11-06T19:21:47.573Z,18.29
2018-11-06T19:24:15.196Z,18.29
2018-11-06T19:26:42.910Z,18.29
2018-11-06T19:29:10.504Z,18.29
2018-11-06T19:31:38.240Z,18.32
2018-11-06T19:34:05.928Z,18.31
2018-11-06T19:36:33.609Z,18.34
2018-11-06T19:39:01.353Z,18.33
2018-11-06T19:41:28.956Z,18.33
2018-11-06T19:43:56.613Z,18.33
2018-11-06T19:46:24.220Z,18.34
2018-11-06T19:48:51.880Z,18.34
2018-11-06T19:51:19.472Z,18.33
2018-11-06T19:53:47.181Z,18.34
2018-11-06T19:56:14.809Z,18.35
2018-11-06T19:58:42.434Z,18.38
2018-11-06T20:01:10.168Z,18.43
2018-11-06T20:03:37.792Z,18.46
2018-11-06T20:06:05.873Z,18.43
2018-11-06T20:08:33.435Z,18.38
2018-11-06T20:11:01.055Z,18.34
2018-11-06T20:13:28.691Z,18.32
2018-11-06T20:15:56.355Z,18.31
2018-11-06T20:18:24.159Z,18.29
2018-11-06T20:20:51.796Z,18.26
2018-11-06T20:23:20.486Z,18.25
2018-11-06T20:25:49.211Z,18.29
2018-11-06T20:28:17.504Z,18.36
2018-11-06T20:30:45.516Z,18.38
2018-11-06T20:33:13.157Z,18.38
2018-11-06T20:35:41.462Z,18.39
2018-11-06T20:38:10.034Z,18.40
2018-11-06T20:40:38.715Z,18.39
2018-11-06T20:43:06.957Z,18.35
2018-11-06T20:45:34.578Z,18.30
2018-11-06T20:48:03.033Z,18.30
2018-11-06T20:50:31.590Z,18.29
2018-11-06T20:52:59.875Z,18.27
2018-11-06T20:55:27.557Z,18.29
2018-11-06T20:57:55.252Z,18.27
2018-11-06T21:00:28.367Z,18.27
2018-11-06T21:02:57.441Z,18.26
2018-11-06T21:05:25.183Z,18.26
2018-11-06T21:07:52.901Z,18.26
2018-11-06T21:10:22.191Z,18.26
2018-11-06T21:12:50.114Z,18.26
2018-11-06T21:15:17.847Z,18.24
2018-11-06T21:17:45.554Z,18.24
2018-11-06T21:20:14.283Z,18.24
2018-11-06T21:22:42.489Z,18.24
2018-11-06T21:25:10.624Z,18.23
2018-11-06T21:27:39.072Z,18.23
2018-11-06T21:30:09.528Z,18.21
2018-11-06T21:32:37.858Z,18.21
2018-11-06T21:35:06.137Z,18.22
2018-11-06T21:37:34.269Z,18.20
2018-11-06T21:40:01.937Z,18.18
2018-11-06T21:42:29.937Z,18.21
2018-11-06T21:44:58.040Z,18.20
2018-11-06T21:47:26.607Z,18.21
2018-11-06T21:49:54.295Z,18.21
2018-11-06T21:52:21.942Z,18.24
2018-11-06T21:54:49.931Z,18.23
2018-11-06T21:57:17.522Z,18.23
2018-11-06T21:59:45.504Z,18.21
2018-11-06T22:02:13.221Z,18.20
2018-11-06T22:04:41.022Z,18.21
2018-11-06T22:07:09.043Z,18.21
2018-11-06T22:09:36.771Z,18.20
2018-11-06T22:12:05.150Z,18.19
2018-11-06T22:14:33.090Z,18.20
2018-11-06T22:17:00.708Z,18.20
2018-11-06T22:19:28.335Z,18.24
2018-11-06T22:21:56.412Z,18.28
2018-11-06T22:24:24.459Z,18.31
2018-11-06T22:26:52.533Z,18.30
2018-11-06T22:29:20.698Z,18.29
2018-11-06T22:31:48.668Z,18.26
2018-11-06T22:34:16.635Z,18.26
2018-11-06T22:36:45.074Z,18.23
2018-11-06T22:39:13.070Z,18.23
2018-11-06T22:41:41.042Z,18.21
2018-11-06T22:44:09.297Z,18.20
2018-11-06T22:46:37.288Z,18.22
2018-11-06T22:49:05.860Z,18.21
2018-11-06T22:51:33.856Z,18.20
2018-11-06T22:54:01.494Z,18.21
2018-11-06T22:56:29.222Z,18.20
2018-11-06T22:58:57.389Z,18.20
2018-11-06T23:01:25.801Z,18.23
2018-11-06T23:03:54.139Z,18.20
2018-11-06T23:06:21.973Z,18.21
2018-11-06T23:08:50.079Z,18.20
2018-11-06T23:11:17.671Z,18.18
2018-11-06T23:13:45.527Z,18.19
2018-11-06T23:16:13.792Z,18.18
2018-11-06T23:18:41.413Z,18.18
2018-11-06T23:21:09.467Z,18.18
2018-11-06T23:23:37.843Z,18.16
2018-11-06T23:26:05.505Z,18.16
2018-11-06T23:28:33.123Z,18.15
2018-11-06T23:31:01.111Z,18.14
2018-11-06T23:33:29.068Z,18.13
2018-11-06T23:35:56.969Z,18.13
2018-11-06T23:38:25.087Z,18.12
2018-11-06T23:40:52.831Z,18.13
2018-11-06T23:43:20.696Z,18.12
2018-11-06T23:45:48.321Z,18.13
2018-11-06T23:48:15.970Z,18.12
2018-11-06T23:50:43.548Z,18.12
2018-11-06T23:53:11.224Z,18.11
2018-11-06T23:55:38.896Z,18.11
2018-11-06T23:58:06.568Z,18.09
